Time;durP1;ratioP1;P1;durP2;ratioP2;P2;SDS_P1;SDS_P2;PMS_P1;PMS_P2;Temp;Humidity;BMP_temperature;BMP_pressure;BME280_temperature;BME280_humidity;BME280_pressure;Samples;Min_cycle;Max_cycle;Signal;HPM_P1;HPM_P2
2023/10/13 00:00:37;;;;;;;8.73;4.87;;;15.90;99.90;;;;;;4949472;28;20215;-38
2023/10/13 00:03:04;;;;;;;7.20;4.50;;;15.80;99.90;;;;;;4937676;28;20228;-40
2023/10/13 00:05:30;;;;;;;6.38;4.38;;;15.70;99.90;;;;;;4920970;28;20201;-41
2023/10/13 00:08:00;;;;;;;10.40;4.60;;;15.70;99.90;;;;;;4950843;28;20181;-39
2023/10/13 00:10:30;;;;;;;7.83;3.97;;;15.60;99.90;;;;;;4941533;28;20248;-41
2023/10/13 00:13:11;;;;;;;6.88;4.10;;;15.70;99.90;;;;;;4943768;28;20200;-37
2023/10/13 00:15:58;;;;;;;8.27;4.10;;;15.70;99.90;;;;;;4942632;29;20464;-37
2023/10/13 00:18:41;;;;;;;6.10;4.03;;;15.70;99.90;;;;;;4953892;28;20219;-39
2023/10/13 00:21:19;;;;;;;8.70;4.47;;;15.60;99.90;;;;;;4936727;28;20217;-42
2023/10/13 00:23:54;;;;;;;7.83;5.00;;;15.40;99.90;;;;;;4937936;28;20267;-42
2023/10/13 00:26:24;;;;;;;7.07;4.27;;;15.30;99.90;;;;;;4936555;28;20657;-41
2023/10/13 00:29:09;;;;;;;9.97;4.87;;;15.30;99.90;;;;;;4932153;29;20298;-42
2023/10/13 00:31:38;;;;;;;8.70;4.50;;;15.30;99.90;;;;;;4953880;28;20192;-40
2023/10/13 00:37:10;;;;;;;10.40;5.00;;;15.30;99.90;;;;;;4953107;28;20271;-41
2023/10/13 00:39:44;;;;;;;7.63;4.50;;;15.20;99.90;;;;;;4957544;28;20204;-41
2023/10/13 00:42:18;;;;;;;8.07;5.20;;;15.30;99.90;;;;;;4939021;28;20264;-41
2023/10/13 00:44:48;;;;;;;7.10;4.40;;;15.20;99.90;;;;;;4934860;28;20197;-39
2023/10/13 00:47:32;;;;;;;6.63;3.87;;;15.20;99.90;;;;;;4924340;28;20197;-41
2023/10/13 00:49:58;;;;;;;8.67;4.20;;;15.20;99.90;;;;;;4933963;28;20224;-41
2023/10/13 00:52:24;;;;;;;10.20;4.47;;;15.20;99.90;;;;;;4948789;28;20201;-41
2023/10/13 00:54:53;;;;;;;9.47;4.40;;;15.20;99.90;;;;;;4939956;28;20185;-40
2023/10/13 00:57:30;;;;;;;6.27;4.57;;;15.20;99.90;;;;;;4957707;28;20180;-38
2023/10/13 01:00:18;;;;;;;8.53;4.47;;;15.20;99.90;;;;;;4941648;28;20274;-41
2023/10/13 01:02:54;;;;;;;10.63;4.70;;;15.20;99.90;;;;;;4922130;29;20216;-40
2023/10/13 01:05:21;;;;;;;10.60;4.90;;;15.10;99.90;;;;;;4922215;29;20200;-42
2023/10/13 01:07:54;;;;;;;9.03;4.40;;;15.10;99.90;;;;;;4923971;29;20182;-38
2023/10/13 01:10:25;;;;;;;6.33;4.50;;;15.00;99.90;;;;;;4946337;28;20169;-38
2023/10/13 01:12:52;;;;;;;7.23;4.50;;;15.00;99.90;;;;;;4942351;29;20258;-38
2023/10/13 01:15:21;;;;;;;11.47;4.83;;;14.90;99.90;;;;;;4947443;28;20188;-40
2023/10/13 01:17:48;;;;;;;6.77;4.57;;;14.90;99.90;;;;;;4945904;29;20210;-41
2023/10/13 01:20:26;;;;;;;7.03;4.30;;;14.80;99.90;;;;;;4939333;28;20231;-41
2023/10/13 01:22:55;;;;;;;6.80;3.67;;;14.80;99.90;;;;;;4931440;29;20198;-38
2023/10/13 01:25:28;;;;;;;10.17;4.20;;;14.70;99.90;;;;;;4946223;28;20181;-41
2023/10/13 01:27:56;;;;;;;7.77;4.17;;;14.70;99.90;;;;;;4938338;28;20182;-38
2023/10/13 01:30:26;;;;;;;8.47;4.03;;;14.70;99.90;;;;;;4940805;28;20181;-39
2023/10/13 01:32:53;;;;;;;4.40;3.53;;;14.60;99.90;;;;;;4926053;29;20201;-41
2023/10/13 01:35:34;;;;;;;6.73;4.53;;;14.70;99.90;;;;;;4923651;28;20181;-41
2023/10/13 01:38:00;;;;;;;9.40;3.73;;;14.70;99.90;;;;;;4930882;29;20228;-41
2023/10/13 01:40:28;;;;;;;7.30;4.00;;;14.70;99.90;;;;;;4932270;28;20189;-37
2023/10/13 01:42:55;;;;;;;8.33;4.03;;;14.80;99.90;;;;;;4932742;28;20210;-34
2023/10/13 01:45:28;;;;;;;5.53;3.93;;;14.80;99.90;;;;;;4932129;28;20176;-38
2023/10/13 01:47:55;;;;;;;7.93;3.70;;;14.80;99.90;;;;;;4956488;28;20263;-38
2023/10/13 01:50:28;;;;;;;8.73;4.10;;;14.80;99.90;;;;;;4932097;28;20177;-41
2023/10/13 01:53:05;;;;;;;7.17;3.77;;;14.80;99.90;;;;;;4934445;28;21070;-38
2023/10/13 01:55:39;;;;;;;7.00;4.30;;;14.80;99.90;;;;;;4944580;28;20264;-41
2023/10/13 01:58:13;;;;;;;5.53;3.97;;;14.80;99.90;;;;;;4929222;29;20201;-41
2023/10/13 02:00:41;;;;;;;8.87;4.33;;;14.80;99.90;;;;;;4936570;29;20173;-42
2023/10/13 02:03:15;;;;;;;7.80;4.37;;;14.70;99.90;;;;;;4940867;29;20197;-35
2023/10/13 02:05:47;;;;;;;7.60;4.23;;;14.60;99.90;;;;;;4923000;28;20177;-39
2023/10/13 02:08:23;;;;;;;5.83;4.20;;;14.60;99.90;;;;;;4934829;28;20196;-41
2023/10/13 02:10:56;;;;;;;6.97;3.70;;;14.60;99.90;;;;;;4936144;28;20176;-41
2023/10/13 02:13:23;;;;;;;5.60;3.80;;;14.50;99.90;;;;;;4944584;28;20209;-41
2023/10/13 02:15:56;;;;;;;7.93;4.00;;;14.50;99.90;;;;;;4926577;28;20228;-35
2023/10/13 02:19:05;;;;;;;6.93;3.90;;;14.50;99.90;;;;;;4929957;28;20208;-41
2023/10/13 02:21:14;;;;;;;8.33;4.47;;;14.50;99.90;;;;;;4936295;28;20269;-40
2023/10/13 02:23:45;;;;;;;8.13;3.53;;;14.50;99.90;;;;;;4924600;28;20201;-38
2023/10/13 02:28:40;;;;;;;5.17;3.90;;;14.40;99.90;;;;;;4943004;28;20184;-34
2023/10/13 02:31:06;;;;;;;7.00;4.00;;;14.30;99.90;;;;;;4939113;28;20211;-38
2023/10/13 02:33:34;;;;;;;8.50;4.03;;;14.30;99.90;;;;;;4928425;28;20206;-37
2023/10/13 02:36:04;;;;;;;7.23;3.87;;;14.20;99.90;;;;;;4937868;28;20176;-37
2023/10/13 02:41:25;;;;;;;8.60;3.87;;;14.10;99.90;;;;;;4955024;28;20176;-41
2023/10/13 02:43:52;;;;;;;8.97;4.03;;;14.00;99.90;;;;;;4948463;28;20211;-41
2023/10/13 02:46:21;;;;;;;6.37;4.37;;;14.00;99.90;;;;;;4952362;28;20184;-36
2023/10/13 02:48:57;;;;;;;7.80;4.50;;;13.90;99.90;;;;;;4939891;28;20191;-41
2023/10/13 02:51:31;;;;;;;6.90;3.90;;;13.80;99.90;;;;;;4931436;28;20217;-35
2023/10/13 02:54:02;;;;;;;9.67;4.47;;;13.80;99.90;;;;;;4938341;28;20196;-39
2023/10/13 02:56:29;;;;;;;7.73;4.60;;;13.80;99.90;;;;;;4931666;28;20208;-41
2023/10/13 02:59:04;;;;;;;6.10;4.50;;;13.70;99.90;;;;;;4923174;29;20261;-40
2023/10/13 03:01:33;;;;;;;8.43;4.30;;;13.60;99.90;;;;;;4953618;28;20177;-37
2023/10/13 03:04:08;;;;;;;10.67;4.70;;;13.60;99.90;;;;;;4920111;29;20209;-37
2023/10/13 03:06:35;;;;;;;8.90;4.40;;;13.50;99.90;;;;;;4938515;28;20189;-35
2023/10/13 03:09:18;;;;;;;7.90;4.10;;;13.50;99.90;;;;;;4939916;29;20185;-36
2023/10/13 03:11:48;;;;;;;7.57;4.00;;;13.50;99.90;;;;;;4923731;28;20176;-40
2023/10/13 03:14:31;;;;;;;7.33;3.93;;;13.50;99.90;;;;;;4936338;28;20229;-38
2023/10/13 03:17:06;;;;;;;7.83;4.10;;;13.50;99.90;;;;;;4944344;28;20181;-41
2023/10/13 03:19:33;;;;;;;8.87;4.63;;;13.60;99.90;;;;;;4936852;28;20212;-41
2023/10/13 03:22:11;;;;;;;6.50;4.17;;;13.40;99.90;;;;;;4921075;28;20181;-41
2023/10/13 03:24:46;;;;;;;8.27;5.00;;;13.40;99.90;;;;;;4950410;28;20207;-41
2023/10/13 03:27:16;;;;;;;5.67;4.00;;;13.30;99.90;;;;;;4945940;28;20257;-41
2023/10/13 03:29:43;;;;;;;7.30;4.40;;;13.30;99.90;;;;;;4939310;28;20190;-41
2023/10/13 03:32:15;;;;;;;7.83;4.73;;;13.20;99.90;;;;;;4927195;29;20177;-41
2023/10/13 03:35:53;;;;;;;7.93;4.50;;;13.20;99.90;;;;;;4934808;29;20197;-39
2023/10/13 03:37:41;;;;;;;6.00;4.27;;;13.20;99.90;;;;;;4934382;28;20212;-41
2023/10/13 03:40:35;;;;;;;9.43;4.57;;;13.20;99.90;;;;;;4951641;29;20237;-42
2023/10/13 03:43:05;;;;;;;9.60;4.23;;;13.20;99.90;;;;;;4940472;28;20212;-42
2023/10/13 03:45:39;;;;;;;8.17;4.20;;;13.10;99.90;;;;;;4946953;28;20720;-42
2023/10/13 03:48:09;;;;;;;6.07;4.30;;;13.10;99.90;;;;;;4954694;28;20180;-40
2023/10/13 03:50:57;;;;;;;8.17;4.90;;;13.20;99.90;;;;;;4939012;28;20173;-41
2023/10/13 03:53:25;;;;;;;8.07;4.53;;;13.20;99.90;;;;;;4929785;28;20193;-41
2023/10/13 03:56:07;;;;;;;7.80;4.60;;;13.10;99.90;;;;;;4948503;28;20181;-42
2023/10/13 03:58:45;;;;;;;6.47;3.90;;;13.10;99.90;;;;;;4938902;28;20212;-41
2023/10/13 04:01:15;;;;;;;5.97;4.50;;;13.10;99.90;;;;;;4938848;28;20204;-41
2023/10/13 04:04:03;;;;;;;8.03;4.47;;;13.10;99.90;;;;;;4937159;28;20248;-41
2023/10/13 04:17:15;;;;;;;8.27;5.07;;;13.00;99.90;;;;;;4946652;29;20231;-41
2023/10/13 04:24:08;;;;;;;7.27;5.73;;;13.00;99.90;;;;;;4952949;28;20176;-42
2023/10/13 04:36:45;;;;;;;8.50;4.70;;;13.00;99.90;;;;;;4938221;29;20186;-41
2023/10/13 04:41:37;;;;;;;8.57;4.83;;;12.90;99.90;;;;;;4957304;28;20216;-41
2023/10/13 04:49:35;;;;;;;7.93;4.93;;;12.90;99.90;;;;;;4960519;28;20193;-42
2023/10/13 04:57:54;;;;;;;6.17;4.67;;;12.70;99.90;;;;;;4937479;28;20200;-41
2023/10/13 05:47:22;;;;;;;12.17;5.40;;;11.80;99.90;;;;;;4947028;28;20187;-38
2023/10/13 05:49:50;;;;;;;10.27;5.37;;;11.80;99.90;;;;;;4956132;28;20176;-38
2023/10/13 06:28:40;;;;;;;9.47;5.20;;;11.80;99.90;;;;;;4935547;29;20184;-38
2023/10/13 06:31:08;;;;;;;10.00;5.70;;;12.50;99.90;;;;;;4926386;29;20212;-27
2023/10/13 06:33:35;;;;;;;13.63;5.37;;;12.50;99.90;;;;;;4929117;29;20185;-28
2023/10/13 06:36:09;;;;;;;8.97;5.83;;;12.50;99.90;;;;;;4924633;29;20205;-28
2023/10/13 06:38:39;;;;;;;9.53;5.47;;;12.50;99.90;;;;;;4924949;29;20225;-27
2023/10/13 06:41:06;;;;;;;10.67;5.40;;;12.50;99.90;;;;;;4925349;29;20181;-28
2023/10/13 06:43:40;;;;;;;11.53;5.57;;;12.60;99.90;;;;;;4930231;29;20258;-27
2023/10/13 06:46:07;;;;;;;11.33;6.17;;;12.60;99.90;;;;;;4926333;29;20183;-28
2023/10/13 06:48:34;;;;;;;13.77;6.00;;;12.60;99.90;;;;;;4923985;29;20191;-28
2023/10/13 06:51:47;;;;;;;9.37;5.40;;;12.70;99.90;;;;;;4931252;29;20212;-28
2023/10/13 06:53:56;;;;;;;10.67;5.50;;;12.70;99.90;;;;;;4900449;29;20221;-28
2023/10/13 06:56:32;;;;;;;11.77;5.50;;;12.80;99.90;;;;;;4923273;29;20200;-27
2023/10/13 06:59:04;;;;;;;10.10;5.60;;;12.90;99.90;;;;;;4924708;29;20278;-28
2023/10/13 07:01:32;;;;;;;9.13;5.07;;;12.90;99.90;;;;;;4925663;29;20258;-28
2023/10/13 07:04:01;;;;;;;9.90;5.30;;;13.00;99.90;;;;;;4896166;29;20211;-29
2023/10/13 07:06:27;;;;;;;8.60;5.20;;;13.00;99.90;;;;;;4920017;29;20185;-29
2023/10/13 07:08:53;;;;;;;6.50;5.23;;;13.00;99.90;;;;;;4930840;29;20196;-29
2023/10/13 07:11:42;;;;;;;7.90;5.03;;;13.10;99.90;;;;;;4902635;29;20191;-28
2023/10/13 07:14:10;;;;;;;9.53;5.03;;;13.10;99.90;;;;;;4922900;29;20226;-27
2023/10/13 07:17:04;;;;;;;10.37;5.30;;;13.20;99.90;;;;;;4925510;29;20190;-28
2023/10/13 07:19:31;;;;;;;10.47;4.87;;;13.40;99.90;;;;;;4927596;29;20256;-28
2023/10/13 07:22:19;;;;;;;8.50;4.77;;;13.50;99.90;;;;;;4932721;29;20197;-28
2023/10/13 07:24:48;;;;;;;11.67;5.00;;;13.70;99.90;;;;;;4932544;29;20205;-27
2023/10/13 07:27:23;;;;;;;9.17;5.20;;;13.90;99.90;;;;;;4932630;29;20216;-28
2023/10/13 07:30:14;;;;;;;8.60;4.43;;;14.10;99.90;;;;;;4932594;29;20196;-27
2023/10/13 07:32:45;;;;;;;11.70;4.97;;;14.20;99.90;;;;;;4924645;29;20217;-28
2023/10/13 07:35:24;;;;;;;12.10;5.23;;;14.40;99.90;;;;;;4914834;29;20210;-28
2023/10/13 07:37:54;;;;;;;8.90;4.87;;;14.60;99.90;;;;;;4930619;29;20185;-29
2023/10/13 07:42:52;;;;;;;10.67;5.50;;;14.90;99.90;;;;;;4927618;29;20187;-27
2023/10/13 07:45:21;;;;;;;7.73;5.40;;;15.00;99.90;;;;;;4936673;29;20201;-28
2023/10/13 07:47:49;;;;;;;9.73;5.33;;;15.00;99.90;;;;;;4920353;29;20182;-29
2023/10/13 07:50:24;;;;;;;7.67;5.30;;;15.00;99.90;;;;;;4934832;29;20296;-28
2023/10/13 07:53:04;;;;;;;8.00;5.73;;;15.10;99.90;;;;;;4936233;29;20190;-28
2023/10/13 07:55:38;;;;;;;11.17;5.00;;;15.20;99.90;;;;;;4929848;29;20297;-29
2023/10/13 07:58:07;;;;;;;6.70;5.40;;;15.20;99.90;;;;;;4926258;29;20212;-28
2023/10/13 08:00:53;;;;;;;7.63;5.33;;;15.30;99.90;;;;;;4916831;29;20193;-28
2023/10/13 08:03:32;;;;;;;9.47;5.33;;;15.50;99.90;;;;;;4907204;29;20190;-27
2023/10/13 08:08:35;;;;;;;9.00;4.27;;;15.90;99.90;;;;;;4932060;29;20189;-27
2023/10/13 08:11:24;;;;;;;9.90;4.20;;;16.00;99.90;;;;;;4932218;29;20198;-28
2023/10/13 08:13:58;;;;;;;7.10;4.40;;;16.30;99.90;;;;;;4935559;29;20217;-28
2023/10/13 08:16:52;;;;;;;7.07;4.13;;;16.50;99.90;;;;;;4928120;29;20196;-27
2023/10/13 08:19:27;;;;;;;6.50;4.00;;;16.70;99.90;;;;;;4936909;29;20284;-28
2023/10/13 08:40:23;;;;;;;9.30;3.92;;;18.50;99.90;;;;;;4935303;29;20213;-29
2023/10/13 08:50:48;;;;;;;7.40;3.58;;;19.90;99.90;;;;;;4935284;29;20194;-29
2023/10/13 08:56:17;;;;;;;7.60;4.00;;;20.30;99.90;;;;;;4935051;29;20190;-29
2023/10/13 09:04:22;;;;;;;7.22;3.17;;;20.70;99.90;;;;;;4916812;29;20217;-30
2023/10/13 09:07:03;;;;;;;8.50;3.78;;;20.90;99.90;;;;;;4930483;29;20194;-30
2023/10/13 09:10:32;;;;;;;10.35;4.13;;;21.10;99.90;;;;;;4936243;29;20213;-29
2023/10/13 09:17:52;;;;;;;9.38;3.45;;;21.40;99.90;;;;;;4934787;29;20186;-30
2023/10/13 09:23:24;;;;;;;9.07;3.17;;;21.70;99.90;;;;;;4936192;29;20202;-30
2023/10/13 09:26:08;;;;;;;10.63;2.72;;;21.90;99.90;;;;;;4935860;29;20214;-29
2023/10/13 09:28:36;;;;;;;11.25;3.17;;;22.30;99.90;;;;;;4932148;29;20198;-28
2023/10/13 09:31:07;;;;;;;7.70;2.92;;;22.50;99.90;;;;;;4935658;29;20195;-30
2023/10/13 09:33:35;;;;;;;9.68;2.95;;;22.60;99.90;;;;;;4919251;29;20199;-29
2023/10/13 09:36:06;;;;;;;7.60;3.25;;;22.90;99.90;;;;;;4925628;29;20186;-30
2023/10/13 09:38:34;;;;;;;11.30;3.45;;;23.00;99.90;;;;;;4934327;29;20229;-30
2023/10/13 09:41:17;;;;;;;11.52;2.80;;;23.10;99.90;;;;;;4934173;29;20214;-30
2023/10/13 09:43:46;;;;;;;9.32;2.80;;;23.30;99.90;;;;;;4934217;29;20224;-29
2023/10/13 09:46:19;;;;;;;10.10;3.08;;;23.40;99.90;;;;;;4934209;29;20178;-30
2023/10/13 09:48:47;;;;;;;11.55;3.33;;;23.50;99.90;;;;;;4934146;29;20195;-30
2023/10/13 09:51:19;;;;;;;9.50;2.85;;;23.60;99.90;;;;;;4934221;29;20273;-30
2023/10/13 09:54:09;;;;;;;9.02;3.13;;;23.70;99.90;;;;;;4935053;29;20186;-30
2023/10/13 09:56:54;;;;;;;10.07;3.30;;;23.80;99.90;;;;;;4906725;29;20225;-30
2023/10/13 09:59:34;;;;;;;11.52;3.45;;;23.90;99.90;;;;;;4934143;29;20244;-30
2023/10/13 10:02:08;;;;;;;10.35;3.38;;;24.10;99.90;;;;;;4922442;29;20209;-30
2023/10/13 10:04:50;;;;;;;6.32;2.75;;;24.10;99.90;;;;;;4896935;29;20304;-30
2023/10/13 10:07:31;;;;;;;7.32;2.95;;;24.20;99.90;;;;;;4933141;29;20182;-30
2023/10/13 10:10:03;;;;;;;8.98;3.33;;;24.40;99.90;;;;;;4924446;29;20286;-30
2023/10/13 10:13:12;;;;;;;8.50;2.83;;;24.40;99.90;;;;;;4916201;29;20183;-30
2023/10/13 10:15:44;;;;;;;9.18;2.90;;;24.60;99.90;;;;;;4917278;29;20260;-30
2023/10/13 10:18:25;;;;;;;10.25;3.15;;;24.80;99.90;;;;;;4921554;29;20314;-30
2023/10/13 10:21:07;;;;;;;6.80;2.70;;;24.90;99.90;;;;;;4916107;29;20265;-30
2023/10/13 10:23:41;;;;;;;8.93;2.97;;;25.00;99.90;;;;;;4924253;29;20194;-30
2023/10/13 10:26:15;;;;;;;8.07;3.13;;;25.10;99.90;;;;;;4927967;29;20217;-30
2023/10/13 10:28:44;;;;;;;9.57;3.10;;;25.20;99.90;;;;;;4933124;29;20197;-30
2023/10/13 10:31:19;;;;;;;7.15;3.15;;;25.10;99.90;;;;;;4932999;29;20241;-30
2023/10/13 10:33:52;;;;;;;8.13;3.40;;;25.20;99.90;;;;;;4899811;29;20186;-29
2023/10/13 10:36:32;;;;;;;10.30;3.00;;;25.20;99.90;;;;;;4911162;29;20253;-30
2023/10/13 10:39:04;;;;;;;7.95;3.08;;;25.30;99.90;;;;;;4933264;29;20214;-30
2023/10/13 10:41:45;;;;;;;11.93;3.17;;;25.40;99.90;;;;;;4929335;29;20224;-29
2023/10/13 10:44:16;;;;;;;9.88;3.20;;;25.60;99.90;;;;;;4910804;29;20212;-30
2023/10/13 10:46:52;;;;;;;9.77;2.97;;;25.60;99.90;;;;;;4932850;29;20238;-30
2023/10/13 10:49:30;;;;;;;9.30;3.20;;;25.70;99.90;;;;;;4934240;29;20650;-30
2023/10/13 10:52:14;;;;;;;5.45;2.85;;;25.80;99.90;;;;;;4934528;29;20209;-29
2023/10/13 10:54:43;;;;;;;7.90;3.25;;;26.00;99.90;;;;;;4932753;29;20216;-30
2023/10/13 10:57:17;;;;;;;6.93;3.17;;;26.00;99.90;;;;;;4932696;29;20241;-30
2023/10/13 10:59:43;;;;;;;8.35;2.97;;;26.10;99.90;;;;;;4932939;29;20312;-30
2023/10/13 11:02:15;;;;;;;9.82;3.25;;;26.20;99.90;;;;;;4929837;29;20183;-31
2023/10/13 11:04:50;;;;;;;11.45;3.20;;;26.10;99.90;;;;;;4914918;29;20234;-30
2023/10/13 11:07:27;;;;;;;8.73;3.08;;;26.00;99.90;;;;;;4916747;29;20182;-30
2023/10/13 11:09:56;;;;;;;12.02;3.20;;;25.80;99.90;;;;;;4932604;29;20265;-30
2023/10/13 11:12:26;;;;;;;10.82;3.33;;;25.80;99.90;;;;;;4933225;29;20197;-30
2023/10/13 11:15:22;;;;;;;6.35;2.90;;;26.00;99.90;;;;;;4933948;29;20237;-30
2023/10/13 11:17:54;;;;;;;9.90;3.25;;;26.10;99.90;;;;;;4929293;29;20217;-30
2023/10/13 11:20:44;;;;;;;8.52;3.15;;;26.30;99.90;;;;;;4934059;29;20208;-30
2023/10/13 11:23:15;;;;;;;6.28;3.13;;;26.40;99.90;;;;;;4915911;29;20186;-30
2023/10/13 11:25:44;;;;;;;9.02;3.35;;;26.50;99.50;;;;;;4932622;29;20261;-30
2023/10/13 11:28:17;;;;;;;14.27;3.63;;;26.60;99.20;;;;;;4933465;29;20265;-30
2023/10/13 11:30:51;;;;;;;8.50;2.97;;;26.70;98.40;;;;;;4932050;29;20186;-30
2023/10/13 11:33:23;;;;;;;10.82;3.03;;;26.70;98.40;;;;;;4919712;29;20186;-30
2023/10/13 11:38:29;;;;;;;5.75;2.92;;;26.90;98.40;;;;;;4924888;29;20174;-30
2023/10/13 11:41:14;;;;;;;8.85;3.50;;;27.00;97.50;;;;;;4917563;29;20186;-30
2023/10/13 11:51:48;;;;;;;8.32;3.28;;;27.40;97.50;;;;;;4932523;29;20217;-30
2023/10/13 11:54:18;;;;;;;8.25;3.13;;;27.50;97.60;;;;;;4931700;29;20295;-31
2023/10/13 11:56:47;;;;;;;9.93;3.28;;;27.70;97.40;;;;;;4932187;29;20232;-31
2023/10/13 11:59:17;;;;;;;4.47;2.80;;;27.80;97.10;;;;;;4926515;29;20671;-31
2023/10/13 12:07:17;;;;;;;8.52;3.00;;;27.90;96.20;;;;;;4908878;29;20186;-30
2023/10/13 12:12:26;;;;;;;6.95;3.00;;;27.90;96.50;;;;;;4910324;29;20182;-30
2023/10/13 12:14:54;;;;;;;6.60;3.20;;;27.90;96.60;;;;;;4897535;29;20230;-30
2023/10/13 12:17:31;;;;;;;6.75;3.13;;;28.00;96.70;;;;;;4896431;29;20213;-30
2023/10/13 12:19:58;;;;;;;4.90;3.05;;;28.10;96.40;;;;;;4900403;29;20260;-29
2023/10/13 12:22:28;;;;;;;7.50;3.50;;;28.20;96.40;;;;;;4907584;29;20192;-31
2023/10/13 12:24:57;;;;;;;8.25;3.20;;;28.30;95.70;;;;;;4908933;29;20297;-30
2023/10/13 12:27:35;;;;;;;7.05;3.40;;;28.30;96.00;;;;;;4905436;29;20191;-30
2023/10/13 12:30:07;;;;;;;6.60;3.35;;;28.30;95.50;;;;;;4901111;29;20217;-29
2023/10/13 12:32:34;;;;;;;6.68;3.33;;;28.30;95.60;;;;;;4913059;29;20227;-30
2023/10/13 12:53:51;;;;;;;7.60;3.33;;;29.00;94.40;;;;;;4921899;29;20202;-31
2023/10/13 12:56:25;;;;;;;5.72;3.58;;;29.00;91.90;;;;;;4929594;29;20190;-30
2023/10/13 12:58:52;;;;;;;5.93;3.22;;;29.00;92.20;;;;;;4924798;29;20353;-30
2023/10/13 13:01:22;;;;;;;10.75;3.10;;;29.10;91.80;;;;;;4934448;29;20182;-30
2023/10/13 13:03:49;;;;;;;7.65;3.38;;;29.20;92.50;;;;;;4929628;29;20215;-30
2023/10/13 13:06:24;;;;;;;11.40;3.40;;;29.30;92.20;;;;;;4932793;29;20196;-30
2023/10/13 13:09:00;;;;;;;9.95;3.03;;;29.30;91.40;;;;;;4935757;29;20193;-30
2023/10/13 13:11:28;;;;;;;8.73;3.35;;;29.40;91.40;;;;;;4911349;29;20186;-31
2023/10/13 13:13:54;;;;;;;5.75;2.85;;;29.40;91.50;;;;;;4926293;29;20220;-31
2023/10/13 13:16:23;;;;;;;7.93;3.40;;;29.40;91.20;;;;;;4930450;29;20191;-31
2023/10/13 13:18:55;;;;;;;10.82;3.15;;;29.40;91.20;;;;;;4922170;29;20221;-31
2023/10/13 13:21:24;;;;;;;8.60;2.95;;;29.50;91.00;;;;;;4926470;29;20182;-30
2023/10/13 13:23:56;;;;;;;5.97;2.92;;;29.50;90.80;;;;;;4936135;29;20210;-31
2023/10/13 13:26:22;;;;;;;12.25;3.35;;;29.50;90.40;;;;;;4929849;29;20182;-30
2023/10/13 13:28:52;;;;;;;7.32;2.97;;;29.60;91.30;;;;;;4935609;29;20190;-30
2023/10/13 13:31:26;;;;;;;9.73;3.28;;;29.60;90.80;;;;;;4925661;29;20179;-31
2023/10/13 13:34:01;;;;;;;9.57;3.22;;;29.40;90.00;;;;;;4904239;29;20212;-31
2023/10/13 13:36:27;;;;;;;8.05;2.97;;;29.40;89.10;;;;;;4920194;29;20190;-30
2023/10/13 13:38:58;;;;;;;7.00;3.47;;;29.40;90.50;;;;;;4919932;29;20272;-32
2023/10/13 13:41:23;;;;;;;11.48;3.63;;;29.40;88.30;;;;;;4916703;29;20269;-30
2023/10/13 13:46:24;;;;;;;5.72;2.80;;;29.20;87.00;;;;;;4920046;29;20187;-32
2023/10/13 13:48:57;;;;;;;9.05;3.00;;;29.10;86.00;;;;;;4922600;29;20647;-30
2023/10/13 13:51:27;;;;;;;6.50;3.33;;;29.00;88.50;;;;;;4934469;29;20257;-30
2023/10/13 13:53:54;;;;;;;6.25;2.70;;;29.00;86.30;;;;;;4931213;29;20213;-30
2023/10/13 13:56:19;;;;;;;5.68;3.20;;;29.00;87.50;;;;;;4926769;29;20179;-30
2023/10/13 13:58:47;;;;;;;6.43;3.17;;;29.00;85.60;;;;;;4928990;29;20217;-30
2023/10/13 14:01:18;;;;;;;7.72;2.88;;;29.00;84.70;;;;;;4928811;29;20241;-30
2023/10/13 14:03:46;;;;;;;7.45;2.50;;;29.00;85.00;;;;;;4933133;29;20186;-30
2023/10/13 14:06:30;;;;;;;5.28;3.17;;;28.90;82.90;;;;;;4927259;29;20246;-30
2023/10/13 14:09:32;;;;;;;7.40;2.53;;;28.90;81.80;;;;;;4922450;29;20251;-30
2023/10/13 14:14:55;;;;;;;4.65;2.60;;;28.80;81.80;;;;;;4920342;29;20202;-30
2023/10/13 14:17:35;;;;;;;4.95;2.67;;;28.80;81.30;;;;;;4915658;29;20282;-32
2023/10/13 14:20:14;;;;;;;6.15;2.70;;;28.80;82.40;;;;;;4898175;29;20206;-30
2023/10/13 14:22:49;;;;;;;4.88;2.45;;;28.90;81.80;;;;;;4924749;29;20198;-30
2023/10/13 14:25:17;;;;;;;9.60;2.92;;;28.90;80.90;;;;;;4928923;29;20210;-30
2023/10/13 14:27:48;;;;;;;4.53;2.60;;;28.90;79.60;;;;;;4934391;29;20190;-30
2023/10/13 14:30:19;;;;;;;5.85;2.60;;;28.90;80.50;;;;;;4934761;29;20218;-30
2023/10/13 14:32:46;;;;;;;7.25;2.42;;;28.80;79.90;;;;;;4930511;29;20178;-30
2023/10/13 14:35:17;;;;;;;5.05;2.60;;;28.80;77.30;;;;;;4924613;29;20206;-30
2023/10/13 14:37:43;;;;;;;4.18;2.20;;;28.80;76.70;;;;;;4915178;29;20237;-31
2023/10/13 14:40:15;;;;;;;4.60;2.60;;;28.70;76.20;;;;;;4931128;29;20201;-29
2023/10/13 14:42:41;;;;;;;5.30;2.30;;;28.60;75.90;;;;;;4927360;29;20182;-30
2023/10/13 14:45:16;;;;;;;3.42;2.72;;;28.50;74.80;;;;;;4931553;29;20241;-30
2023/10/13 14:47:43;;;;;;;5.68;2.65;;;28.50;75.40;;;;;;4927020;29;20178;-30
2023/10/13 14:50:19;;;;;;;5.30;2.88;;;28.40;75.40;;;;;;4932826;29;20189;-30
2023/10/13 14:52:51;;;;;;;7.65;2.53;;;28.50;75.60;;;;;;4907258;29;20188;-30
2023/10/13 14:55:21;;;;;;;5.78;2.58;;;28.40;76.60;;;;;;4930864;29;20288;-30
2023/10/13 14:57:47;;;;;;;7.43;3.08;;;28.50;77.20;;;;;;4926211;29;20182;-30
2023/10/13 15:00:14;;;;;;;8.15;2.70;;;28.50;75.40;;;;;;4913938;29;20206;-32
2023/10/13 15:02:43;;;;;;;5.68;2.70;;;28.50;75.00;;;;;;4917276;29;20182;-31
2023/10/13 15:05:16;;;;;;;5.00;2.55;;;28.50;75.60;;;;;;4912806;29;20206;-30
2023/10/13 15:07:45;;;;;;;5.65;2.72;;;28.40;75.40;;;;;;4919329;29;20194;-30
2023/10/13 15:10:15;;;;;;;7.65;2.78;;;28.40;75.80;;;;;;4911362;29;20194;-29
2023/10/13 15:12:44;;;;;;;7.40;3.53;;;28.30;76.90;;;;;;4908941;29;20188;-30
2023/10/13 15:15:16;;;;;;;10.35;3.35;;;28.30;77.30;;;;;;4885570;29;20213;-30
2023/10/13 15:17:48;;;;;;;6.18;3.70;;;28.30;78.60;;;;;;4917812;29;20659;-30
2023/10/13 15:20:17;;;;;;;10.60;4.07;;;28.20;77.80;;;;;;4923658;29;20202;-31
2023/10/13 15:22:49;;;;;;;9.40;4.00;;;28.20;79.90;;;;;;4900673;29;20222;-30
2023/10/13 15:26:06;;;;;;;9.35;4.55;;;28.20;79.20;;;;;;4919878;29;20206;-30
2023/10/13 15:28:04;;;;;;;7.85;4.55;;;28.10;79.20;;;;;;4916308;29;20186;-30
2023/10/13 15:30:48;;;;;;;15.38;6.13;;;28.10;80.00;;;;;;4922420;29;20190;-30
2023/10/13 15:33:19;;;;;;;10.95;5.53;;;28.00;80.80;;;;;;4918172;29;20253;-30
2023/10/13 15:35:46;;;;;;;9.02;5.43;;;28.10;81.20;;;;;;4931664;29;20209;-30
2023/10/13 15:38:12;;;;;;;8.48;4.65;;;28.00;81.10;;;;;;4930312;29;20178;-30
2023/10/13 15:40:45;;;;;;;6.07;3.13;;;27.90;81.40;;;;;;4933312;29;20299;-30
2023/10/13 15:43:12;;;;;;;6.07;2.67;;;27.80;81.80;;;;;;4931482;29;20185;-30
2023/10/13 15:45:43;;;;;;;3.25;2.50;;;27.60;82.30;;;;;;4913366;29;20201;-31
2023/10/13 15:48:12;;;;;;;6.40;2.78;;;27.50;82.60;;;;;;4932044;29;20178;-31
2023/10/13 15:50:42;;;;;;;4.25;2.90;;;27.30;83.10;;;;;;4931529;29;20186;-30
2023/10/13 15:53:15;;;;;;;9.52;3.10;;;27.10;83.90;;;;;;4932053;29;20213;-30
2023/10/13 15:55:45;;;;;;;5.15;3.30;;;26.90;84.90;;;;;;4919378;29;20218;-29
2023/10/13 15:58:13;;;;;;;8.73;2.85;;;26.70;86.00;;;;;;4914687;29;20179;-31
2023/10/13 16:00:39;;;;;;;7.45;3.40;;;26.50;86.00;;;;;;4919532;29;20213;-30
2023/10/13 16:03:10;;;;;;;8.18;3.10;;;26.50;86.60;;;;;;4922508;29;20186;-30
2023/10/13 16:05:39;;;;;;;8.50;3.53;;;26.30;86.40;;;;;;4916426;29;20217;-30
2023/10/13 16:08:10;;;;;;;10.43;3.03;;;26.20;86.70;;;;;;4917705;29;20187;-30
2023/10/13 16:10:42;;;;;;;12.23;3.97;;;26.10;87.70;;;;;;4906196;29;20268;-30
2023/10/13 16:13:14;;;;;;;7.82;3.78;;;26.00;88.20;;;;;;4921806;29;20282;-30
2023/10/13 16:15:42;;;;;;;8.98;4.10;;;25.90;88.90;;;;;;4916696;29;20242;-31
2023/10/13 16:18:09;;;;;;;12.32;3.03;;;25.80;89.10;;;;;;4900496;29;20222;-30
2023/10/13 16:20:37;;;;;;;7.30;3.47;;;25.60;89.40;;;;;;4917483;29;20214;-30
2023/10/13 16:23:05;;;;;;;9.40;3.17;;;25.60;89.90;;;;;;4915025;29;20197;-30
2023/10/13 16:25:32;;;;;;;8.48;3.47;;;25.40;90.20;;;;;;4932293;29;20290;-30
2023/10/13 16:27:58;;;;;;;10.13;3.90;;;25.40;90.00;;;;;;4918345;29;20707;-30
2023/10/13 16:30:24;;;;;;;6.97;3.67;;;25.30;90.30;;;;;;4903793;29;20179;-30
2023/10/13 16:32:50;;;;;;;8.18;4.50;;;25.20;90.80;;;;;;4922189;29;20281;-30
2023/10/13 16:35:17;;;;;;;10.02;4.78;;;25.10;91.10;;;;;;4921074;29;20341;-31
2023/10/13 16:37:50;;;;;;;15.88;5.70;;;25.00;91.50;;;;;;4936502;29;20182;-30
2023/10/13 16:40:20;;;;;;;12.23;5.07;;;24.90;92.00;;;;;;4936927;29;20306;-30
2023/10/13 16:42:52;;;;;;;14.18;5.25;;;24.70;92.50;;;;;;4924317;29;20190;-29
2023/10/13 16:45:21;;;;;;;14.82;7.38;;;24.60;92.70;;;;;;4924710;29;20199;-29
2023/10/13 16:47:49;;;;;;;13.00;7.43;;;24.60;92.90;;;;;;4916785;29;20273;-29
2023/10/13 16:50:23;;;;;;;12.35;6.13;;;24.40;93.20;;;;;;4936315;29;20201;-30
2023/10/13 16:52:50;;;;;;;10.43;5.30;;;24.30;93.70;;;;;;4922022;29;20282;-30
2023/10/13 16:55:19;;;;;;;8.90;5.10;;;24.30;94.10;;;;;;4916593;29;20350;-29